sensor_id;sensor_type;location;lat;lon;timestamp;P1;durP1;ratioP1;P2;durP2;ratioP2
32874;SDS011;40468;42.128;24.750;2024-02-28T00:01:29;11.43;;;5.10;;
32874;SDS011;40468;42.128;24.750;2024-02-28T00:03:00;18.52;;;6.05;;
32874;SDS011;40468;42.128;24.750;2024-02-28T00:04:31;20.00;;;6.90;;
32874;SDS011;40468;42.128;24.750;2024-02-28T00:06:04;20.50;;;7.35;;
32874;SDS011;40468;42.128;24.750;2024-02-28T00:07:36;18.75;;;6.57;;
32874;SDS011;40468;42.128;24.750;2024-02-28T00:09:07;18.73;;;6.03;;
32874;SDS011;40468;42.128;24.750;2024-02-28T00:10:39;19.42;;;6.80;;
32874;SDS011;40468;42.128;24.750;2024-02-28T00:12:09;15.73;;;5.28;;
32874;SDS011;40468;42.128;24.750;2024-02-28T00:13:42;14.52;;;5.72;;
32874;SDS011;40468;42.128;24.750;2024-02-28T00:15:13;17.88;;;6.30;;
32874;SDS011;40468;42.128;24.750;2024-02-28T00:16:45;21.98;;;6.93;;
32874;SDS011;40468;42.128;24.750;2024-02-28T00:18:16;22.08;;;7.05;;
32874;SDS011;40468;42.128;24.750;2024-02-28T00:19:49;16.23;;;6.05;;
32874;SDS011;40468;42.128;24.750;2024-02-28T00:21:21;22.40;;;5.78;;
32874;SDS011;40468;42.128;24.750;2024-02-28T00:22:53;14.27;;;6.07;;
32874;SDS011;40468;42.128;24.750;2024-02-28T00:24:24;23.42;;;6.75;;
32874;SDS011;40468;42.128;24.750;2024-02-28T00:25:56;16.80;;;6.15;;
32874;SDS011;40468;42.128;24.750;2024-02-28T00:27:26;26.83;;;7.07;;
32874;SDS011;40468;42.128;24.750;2024-02-28T00:28:58;16.95;;;6.10;;
32874;SDS011;40468;42.128;24.750;2024-02-28T00:30:29;22.98;;;6.78;;
32874;SDS011;40468;42.128;24.750;2024-02-28T00:32:03;23.40;;;6.68;;
32874;SDS011;40468;42.128;24.750;2024-02-28T00:33:34;20.25;;;7.25;;
32874;SDS011;40468;42.128;24.750;2024-02-28T00:35:06;16.30;;;6.85;;
32874;SDS011;40468;42.128;24.750;2024-02-28T00:36:39;17.55;;;6.13;;
32874;SDS011;40468;42.128;24.750;2024-02-28T00:38:11;15.95;;;6.63;;
32874;SDS011;40468;42.128;24.750;2024-02-28T00:39:42;25.20;;;6.68;;
32874;SDS011;40468;42.128;24.750;2024-02-28T00:41:14;21.50;;;6.38;;
32874;SDS011;40468;42.128;24.750;2024-02-28T00:42:45;16.67;;;6.97;;
32874;SDS011;40468;42.128;24.750;2024-02-28T00:44:18;25.10;;;6.30;;
32874;SDS011;40468;42.128;24.750;2024-02-28T00:45:49;24.33;;;6.18;;
32874;SDS011;40468;42.128;24.750;2024-02-28T00:47:20;21.30;;;7.05;;
32874;SDS011;40468;42.128;24.750;2024-02-28T00:48:51;15.50;;;6.10;;
32874;SDS011;40468;42.128;24.750;2024-02-28T00:50:23;21.38;;;6.68;;
32874;SDS011;40468;42.128;24.750;2024-02-28T00:51:55;15.70;;;5.00;;
32874;SDS011;40468;42.128;24.750;2024-02-28T00:53:27;14.65;;;6.20;;
32874;SDS011;40468;42.128;24.750;2024-02-28T00:54:58;15.85;;;5.90;;
32874;SDS011;40468;42.128;24.750;2024-02-28T00:56:30;14.43;;;6.03;;
32874;SDS011;40468;42.128;24.750;2024-02-28T00:58:00;20.55;;;6.35;;
32874;SDS011;40468;42.128;24.750;2024-02-28T00:59:32;24.15;;;6.53;;
32874;SDS011;40468;42.128;24.750;2024-02-28T01:01:03;16.83;;;6.55;;
32874;SDS011;40468;42.128;24.750;2024-02-28T01:02:35;33.30;;;6.35;;
32874;SDS011;40468;42.128;24.750;2024-02-28T01:04:06;18.38;;;6.78;;
32874;SDS011;40468;42.128;24.750;2024-02-28T01:05:38;19.00;;;5.82;;
32874;SDS011;40468;42.128;24.750;2024-02-28T01:07:10;17.60;;;6.05;;
32874;SDS011;40468;42.128;24.750;2024-02-28T01:08:42;15.30;;;5.95;;
32874;SDS011;40468;42.128;24.750;2024-02-28T01:10:13;18.17;;;6.57;;
32874;SDS011;40468;42.128;24.750;2024-02-28T01:11:45;18.85;;;6.43;;
32874;SDS011;40468;42.128;24.750;2024-02-28T01:13:15;19.67;;;6.40;;
32874;SDS011;40468;42.128;24.750;2024-02-28T01:14:47;26.77;;;6.70;;
32874;SDS011;40468;42.128;24.750;2024-02-28T01:16:18;23.27;;;6.53;;
32874;SDS011;40468;42.128;24.750;2024-02-28T01:17:50;25.55;;;6.50;;
32874;SDS011;40468;42.128;24.750;2024-02-28T01:19:20;25.35;;;7.65;;
32874;SDS011;40468;42.128;24.750;2024-02-28T01:20:52;25.20;;;7.80;;
32874;SDS011;40468;42.128;24.750;2024-02-28T01:22:25;19.15;;;6.97;;
32874;SDS011;40468;42.128;24.750;2024-02-28T01:23:56;19.83;;;7.22;;
32874;SDS011;40468;42.128;24.750;2024-02-28T01:25:27;21.45;;;7.28;;
32874;SDS011;40468;42.128;24.750;2024-02-28T01:27:00;25.70;;;7.45;;
32874;SDS011;40468;42.128;24.750;2024-02-28T01:28:31;24.83;;;6.47;;
32874;SDS011;40468;42.128;24.750;2024-02-28T01:30:03;19.92;;;6.20;;
32874;SDS011;40468;42.128;24.750;2024-02-28T01:31:34;22.58;;;6.63;;
32874;SDS011;40468;42.128;24.750;2024-02-28T01:33:06;31.58;;;7.40;;
32874;SDS011;40468;42.128;24.750;2024-02-28T01:34:37;19.42;;;6.47;;
32874;SDS011;40468;42.128;24.750;2024-02-28T01:36:10;19.63;;;6.57;;
32874;SDS011;40468;42.128;24.750;2024-02-28T01:37:43;21.13;;;6.75;;
32874;SDS011;40468;42.128;24.750;2024-02-28T01:39:15;16.63;;;6.03;;
32874;SDS011;40468;42.128;24.750;2024-02-28T01:40:45;20.27;;;6.13;;
32874;SDS011;40468;42.128;24.750;2024-02-28T01:42:17;20.20;;;5.97;;
32874;SDS011;40468;42.128;24.750;2024-02-28T01:43:49;17.95;;;6.15;;
32874;SDS011;40468;42.128;24.750;2024-02-28T01:45:20;18.98;;;6.50;;
32874;SDS011;40468;42.128;24.750;2024-02-28T01:46:52;20.25;;;5.55;;
32874;SDS011;40468;42.128;24.750;2024-02-28T01:48:25;15.50;;;5.93;;
32874;SDS011;40468;42.128;24.750;2024-02-28T01:49:56;22.10;;;6.93;;
32874;SDS011;40468;42.128;24.750;2024-02-28T01:51:27;27.92;;;7.63;;
32874;SDS011;40468;42.128;24.750;2024-02-28T01:53:01;17.80;;;7.00;;
32874;SDS011;40468;42.128;24.750;2024-02-28T01:54:32;24.90;;;6.80;;
32874;SDS011;40468;42.128;24.750;2024-02-28T01:56:06;15.80;;;6.28;;
32874;SDS011;40468;42.128;24.750;2024-02-28T01:57:38;20.33;;;6.35;;
32874;SDS011;40468;42.128;24.750;2024-02-28T01:59:10;23.30;;;6.55;;
32874;SDS011;40468;42.128;24.750;2024-02-28T02:00:41;22.50;;;6.10;;
32874;SDS011;40468;42.128;24.750;2024-02-28T02:02:14;20.48;;;6.03;;
32874;SDS011;40468;42.128;24.750;2024-02-28T02:03:45;21.48;;;6.90;;
32874;SDS011;40468;42.128;24.750;2024-02-28T02:05:17;25.05;;;6.07;;
32874;SDS011;40468;42.128;24.750;2024-02-28T02:06:50;25.90;;;7.05;;
32874;SDS011;40468;42.128;24.750;2024-02-28T02:09:56;27.75;;;6.82;;
32874;SDS011;40468;42.128;24.750;2024-02-28T02:11:28;26.38;;;6.63;;
32874;SDS011;40468;42.128;24.750;2024-02-28T02:13:03;28.80;;;6.22;;
32874;SDS011;40468;42.128;24.750;2024-02-28T02:14:35;25.40;;;6.63;;
32874;SDS011;40468;42.128;24.750;2024-02-28T02:16:07;28.17;;;6.82;;
32874;SDS011;40468;42.128;24.750;2024-02-28T02:17:37;15.50;;;5.90;;
32874;SDS011;40468;42.128;24.750;2024-02-28T02:19:09;26.05;;;6.80;;
32874;SDS011;40468;42.128;24.750;2024-02-28T02:20:41;20.17;;;6.45;;
32874;SDS011;40468;42.128;24.750;2024-02-28T02:22:18;23.63;;;6.63;;
32874;SDS011;40468;42.128;24.750;2024-02-28T02:23:52;18.52;;;6.00;;
32874;SDS011;40468;42.128;24.750;2024-02-28T02:25:23;18.60;;;5.47;;
32874;SDS011;40468;42.128;24.750;2024-02-28T02:26:54;20.75;;;6.68;;
32874;SDS011;40468;42.128;24.750;2024-02-28T02:28:27;23.10;;;7.43;;
32874;SDS011;40468;42.128;24.750;2024-02-28T02:29:58;17.25;;;6.28;;
32874;SDS011;40468;42.128;24.750;2024-02-28T02:31:30;22.67;;;7.20;;
32874;SDS011;40468;42.128;24.750;2024-02-28T02:33:00;25.45;;;7.65;;
32874;SDS011;40468;42.128;24.750;2024-02-28T02:34:32;23.73;;;6.68;;
32874;SDS011;40468;42.128;24.750;2024-02-28T02:36:04;19.23;;;6.85;;
32874;SDS011;40468;42.128;24.750;2024-02-28T02:37:36;26.50;;;7.65;;
32874;SDS011;40468;42.128;24.750;2024-02-28T02:39:08;17.27;;;6.20;;
32874;SDS011;40468;42.128;24.750;2024-02-28T02:40:40;18.83;;;5.93;;
32874;SDS011;40468;42.128;24.750;2024-02-28T02:42:11;21.20;;;5.95;;
32874;SDS011;40468;42.128;24.750;2024-02-28T02:43:44;21.20;;;6.88;;
32874;SDS011;40468;42.128;24.750;2024-02-28T02:45:16;24.83;;;6.70;;
32874;SDS011;40468;42.128;24.750;2024-02-28T02:46:47;19.45;;;6.03;;
32874;SDS011;40468;42.128;24.750;2024-02-28T02:48:18;24.35;;;6.47;;
32874;SDS011;40468;42.128;24.750;2024-02-28T02:49:50;24.20;;;6.20;;
32874;SDS011;40468;42.128;24.750;2024-02-28T02:51:21;21.90;;;6.60;;
32874;SDS011;40468;42.128;24.750;2024-02-28T02:52:53;19.55;;;6.93;;
32874;SDS011;40468;42.128;24.750;2024-02-28T02:54:25;24.27;;;6.70;;
32874;SDS011;40468;42.128;24.750;2024-02-28T02:55:57;21.08;;;5.50;;
32874;SDS011;40468;42.128;24.750;2024-02-28T02:57:28;18.45;;;6.53;;
32874;SDS011;40468;42.128;24.750;2024-02-28T02:59:01;20.23;;;6.35;;
32874;SDS011;40468;42.128;24.750;2024-02-28T03:00:31;16.60;;;6.18;;
32874;SDS011;40468;42.128;24.750;2024-02-28T03:02:03;15.85;;;5.85;;
32874;SDS011;40468;42.128;24.750;2024-02-28T03:03:34;21.73;;;5.63;;
32874;SDS011;40468;42.128;24.750;2024-02-28T03:05:07;28.90;;;6.93;;
32874;SDS011;40468;42.128;24.750;2024-02-28T03:06:38;16.90;;;6.10;;
32874;SDS011;40468;42.128;24.750;2024-02-28T03:08:10;20.23;;;5.70;;
32874;SDS011;40468;42.128;24.750;2024-02-28T03:09:42;15.40;;;6.38;;
32874;SDS011;40468;42.128;24.750;2024-02-28T03:11:14;18.27;;;6.20;;
32874;SDS011;40468;42.128;24.750;2024-02-28T03:12:45;18.55;;;5.32;;
32874;SDS011;40468;42.128;24.750;2024-02-28T03:14:17;23.45;;;6.55;;
32874;SDS011;40468;42.128;24.750;2024-02-28T03:15:49;19.40;;;6.28;;
32874;SDS011;40468;42.128;24.750;2024-02-28T03:17:20;16.05;;;5.63;;
32874;SDS011;40468;42.128;24.750;2024-02-28T03:18:51;21.55;;;6.80;;
32874;SDS011;40468;42.128;24.750;2024-02-28T03:20:23;17.08;;;6.88;;
32874;SDS011;40468;42.128;24.750;2024-02-28T03:21:54;18.92;;;6.10;;
32874;SDS011;40468;42.128;24.750;2024-02-28T03:23:26;18.38;;;6.55;;
32874;SDS011;40468;42.128;24.750;2024-02-28T03:24:58;22.35;;;7.45;;
32874;SDS011;40468;42.128;24.750;2024-02-28T03:26:30;23.23;;;6.32;;
32874;SDS011;40468;42.128;24.750;2024-02-28T03:28:01;23.38;;;7.10;;
32874;SDS011;40468;42.128;24.750;2024-02-28T03:29:34;19.25;;;6.03;;
32874;SDS011;40468;42.128;24.750;2024-02-28T03:31:05;21.45;;;6.60;;
32874;SDS011;40468;42.128;24.750;2024-02-28T03:32:37;21.35;;;6.60;;
32874;SDS011;40468;42.128;24.750;2024-02-28T03:34:07;19.55;;;6.30;;
32874;SDS011;40468;42.128;24.750;2024-02-28T03:35:40;22.35;;;7.45;;
32874;SDS011;40468;42.128;24.750;2024-02-28T03:37:11;22.38;;;7.10;;
32874;SDS011;40468;42.128;24.750;2024-02-28T03:38:42;21.67;;;6.93;;
32874;SDS011;40468;42.128;24.750;2024-02-28T03:40:15;27.95;;;6.93;;
32874;SDS011;40468;42.128;24.750;2024-02-28T03:41:47;23.52;;;6.35;;
32874;SDS011;40468;42.128;24.750;2024-02-28T03:43:17;18.45;;;6.93;;
32874;SDS011;40468;42.128;24.750;2024-02-28T03:44:49;25.83;;;7.47;;
32874;SDS011;40468;42.128;24.750;2024-02-28T03:46:20;15.32;;;6.75;;
32874;SDS011;40468;42.128;24.750;2024-02-28T03:47:52;22.00;;;6.90;;
32874;SDS011;40468;42.128;24.750;2024-02-28T03:49:23;19.13;;;6.72;;
32874;SDS011;40468;42.128;24.750;2024-02-28T03:50:55;19.73;;;6.50;;
32874;SDS011;40468;42.128;24.750;2024-02-28T03:52:26;16.48;;;6.43;;
32874;SDS011;40468;42.128;24.750;2024-02-28T03:53:59;18.83;;;6.63;;
32874;SDS011;40468;42.128;24.750;2024-02-28T03:55:32;13.75;;;6.07;;
32874;SDS011;40468;42.128;24.750;2024-02-28T03:57:04;25.50;;;7.47;;
32874;SDS011;40468;42.128;24.750;2024-02-28T03:58:35;13.93;;;6.18;;
32874;SDS011;40468;42.128;24.750;2024-02-28T04:00:07;17.92;;;6.35;;
32874;SDS011;40468;42.128;24.750;2024-02-28T04:01:38;23.08;;;7.25;;
32874;SDS011;40468;42.128;24.750;2024-02-28T04:03:10;22.77;;;7.25;;
32874;SDS011;40468;42.128;24.750;2024-02-28T04:04:41;28.20;;;7.53;;
32874;SDS011;40468;42.128;24.750;2024-02-28T04:06:13;29.08;;;7.20;;
32874;SDS011;40468;42.128;24.750;2024-02-28T04:07:44;22.30;;;7.57;;
32874;SDS011;40468;42.128;24.750;2024-02-28T04:09:15;23.75;;;7.88;;
32874;SDS011;40468;42.128;24.750;2024-02-28T04:10:47;21.02;;;7.43;;
32874;SDS011;40468;42.128;24.750;2024-02-28T04:12:21;21.98;;;7.38;;
32874;SDS011;40468;42.128;24.750;2024-02-28T04:13:51;24.45;;;7.80;;
32874;SDS011;40468;42.128;24.750;2024-02-28T04:15:23;20.80;;;7.15;;
32874;SDS011;40468;42.128;24.750;2024-02-28T04:16:56;20.27;;;8.07;;
32874;SDS011;40468;42.128;24.750;2024-02-28T04:18:27;22.98;;;7.50;;
32874;SDS011;40468;42.128;24.750;2024-02-28T04:19:58;17.70;;;7.13;;
32874;SDS011;40468;42.128;24.750;2024-02-28T04:21:34;17.90;;;7.15;;
32874;SDS011;40468;42.128;24.750;2024-02-28T04:23:05;22.20;;;6.55;;
32874;SDS011;40468;42.128;24.750;2024-02-28T04:24:37;21.33;;;7.10;;
32874;SDS011;40468;42.128;24.750;2024-02-28T04:26:09;23.33;;;7.00;;
32874;SDS011;40468;42.128;24.750;2024-02-28T04:27:41;19.65;;;6.55;;
32874;SDS011;40468;42.128;24.750;2024-02-28T04:29:12;17.52;;;7.20;;
32874;SDS011;40468;42.128;24.750;2024-02-28T04:30:44;23.17;;;7.05;;
32874;SDS011;40468;42.128;24.750;2024-02-28T04:32:15;20.92;;;7.07;;
32874;SDS011;40468;42.128;24.750;2024-02-28T04:33:47;21.90;;;6.85;;
32874;SDS011;40468;42.128;24.750;2024-02-28T04:35:17;21.15;;;7.22;;
32874;SDS011;40468;42.128;24.750;2024-02-28T04:36:49;18.80;;;6.90;;
32874;SDS011;40468;42.128;24.750;2024-02-28T04:38:21;24.65;;;8.18;;
32874;SDS011;40468;42.128;24.750;2024-02-28T04:39:52;19.58;;;6.93;;
32874;SDS011;40468;42.128;24.750;2024-02-28T04:41:25;21.45;;;7.65;;
32874;SDS011;40468;42.128;24.750;2024-02-28T04:42:56;24.00;;;8.15;;
32874;SDS011;40468;42.128;24.750;2024-02-28T04:44:28;27.08;;;8.93;;
32874;SDS011;40468;42.128;24.750;2024-02-28T04:45:58;29.77;;;9.73;;
32874;SDS011;40468;42.128;24.750;2024-02-28T04:47:30;23.08;;;10.20;;
32874;SDS011;40468;42.128;24.750;2024-02-28T04:49:01;29.58;;;10.13;;
32874;SDS011;40468;42.128;24.750;2024-02-28T04:50:33;36.40;;;9.43;;
32874;SDS011;40468;42.128;24.750;2024-02-28T04:52:05;23.63;;;9.30;;
32874;SDS011;40468;42.128;24.750;2024-02-28T04:53:36;29.95;;;10.45;;
32874;SDS011;40468;42.128;24.750;2024-02-28T04:55:10;25.73;;;9.82;;
32874;SDS011;40468;42.128;24.750;2024-02-28T04:56:43;27.25;;;10.00;;
32874;SDS011;40468;42.128;24.750;2024-02-28T04:58:16;24.50;;;10.10;;
32874;SDS011;40468;42.128;24.750;2024-02-28T04:59:47;25.38;;;10.20;;
32874;SDS011;40468;42.128;24.750;2024-02-28T05:01:19;25.75;;;10.70;;
32874;SDS011;40468;42.128;24.750;2024-02-28T05:02:50;27.08;;;11.88;;
32874;SDS011;40468;42.128;24.750;2024-02-28T05:04:22;32.78;;;11.90;;
32874;SDS011;40468;42.128;24.750;2024-02-28T05:05:53;26.70;;;11.70;;
32874;SDS011;40468;42.128;24.750;2024-02-28T05:07:25;25.75;;;12.00;;
32874;SDS011;40468;42.128;24.750;2024-02-28T05:08:56;24.52;;;12.43;;
32874;SDS011;40468;42.128;24.750;2024-02-28T05:10:28;29.90;;;11.70;;
32874;SDS011;40468;42.128;24.750;2024-02-28T05:12:00;30.45;;;12.70;;
32874;SDS011;40468;42.128;24.750;2024-02-28T05:13:32;25.10;;;11.48;;
32874;SDS011;40468;42.128;24.750;2024-02-28T05:15:03;30.23;;;12.20;;
32874;SDS011;40468;42.128;24.750;2024-02-28T05:16:36;24.25;;;10.90;;
32874;SDS011;40468;42.128;24.750;2024-02-28T05:18:07;32.67;;;11.98;;
32874;SDS011;40468;42.128;24.750;2024-02-28T05:19:39;28.70;;;11.77;;
32874;SDS011;40468;42.128;24.750;2024-02-28T05:21:10;30.20;;;11.55;;
32874;SDS011;40468;42.128;24.750;2024-02-28T05:22:41;25.95;;;11.85;;
32874;SDS011;40468;42.128;24.750;2024-02-28T05:24:12;29.98;;;11.68;;
32874;SDS011;40468;42.128;24.750;2024-02-28T05:25:45;30.02;;;12.73;;
32874;SDS011;40468;42.128;24.750;2024-02-28T05:27:18;26.98;;;11.45;;
32874;SDS011;40468;42.128;24.750;2024-02-28T05:28:49;27.40;;;12.07;;
32874;SDS011;40468;42.128;24.750;2024-02-28T05:30:20;28.50;;;13.07;;
32874;SDS011;40468;42.128;24.750;2024-02-28T05:31:52;34.35;;;13.68;;
32874;SDS011;40468;42.128;24.750;2024-02-28T05:33:23;27.17;;;12.07;;
32874;SDS011;40468;42.128;24.750;2024-02-28T05:34:55;30.02;;;12.02;;
32874;SDS011;40468;42.128;24.750;2024-02-28T05:36:26;39.67;;;13.40;;
32874;SDS011;40468;42.128;24.750;2024-02-28T05:37:58;30.30;;;13.00;;
32874;SDS011;40468;42.128;24.750;2024-02-28T05:39:29;28.08;;;13.02;;
32874;SDS011;40468;42.128;24.750;2024-02-28T05:41:01;31.70;;;12.57;;
32874;SDS011;40468;42.128;24.750;2024-02-28T05:42:33;33.55;;;12.68;;
32874;SDS011;40468;42.128;24.750;2024-02-28T05:44:05;30.52;;;13.15;;
32874;SDS011;40468;42.128;24.750;2024-02-28T05:45:35;33.90;;;14.05;;
32874;SDS011;40468;42.128;24.750;2024-02-28T05:47:07;35.92;;;16.08;;
32874;SDS011;40468;42.128;24.750;2024-02-28T05:48:38;35.35;;;14.65;;
32874;SDS011;40468;42.128;24.750;2024-02-28T05:50:12;36.42;;;15.50;;
32874;SDS011;40468;42.128;24.750;2024-02-28T05:51:43;33.72;;;15.15;;
32874;SDS011;40468;42.128;24.750;2024-02-28T05:53:16;33.35;;;13.48;;
32874;SDS011;40468;42.128;24.750;2024-02-28T05:54:47;100.55;;;45.47;;
32874;SDS011;40468;42.128;24.750;2024-02-28T05:56:19;101.78;;;45.25;;
32874;SDS011;40468;42.128;24.750;2024-02-28T05:57:52;104.57;;;49.63;;
32874;SDS011;40468;42.128;24.750;2024-02-28T05:59:24;39.50;;;17.35;;
32874;SDS011;40468;42.128;24.750;2024-02-28T06:00:55;41.33;;;15.00;;
32874;SDS011;40468;42.128;24.750;2024-02-28T06:02:27;36.28;;;14.95;;
32874;SDS011;40468;42.128;24.750;2024-02-28T06:03:59;34.45;;;14.43;;
32874;SDS011;40468;42.128;24.750;2024-02-28T06:05:29;36.72;;;14.88;;
32874;SDS011;40468;42.128;24.750;2024-02-28T06:07:01;32.33;;;14.70;;
32874;SDS011;40468;42.128;24.750;2024-02-28T06:08:33;39.55;;;17.00;;
32874;SDS011;40468;42.128;24.750;2024-02-28T06:10:05;49.30;;;16.75;;
32874;SDS011;40468;42.128;24.750;2024-02-28T06:11:38;40.85;;;15.90;;
32874;SDS011;40468;42.128;24.750;2024-02-28T06:13:10;44.33;;;18.23;;
32874;SDS011;40468;42.128;24.750;2024-02-28T06:14:42;40.22;;;15.68;;
32874;SDS011;40468;42.128;24.750;2024-02-28T06:16:13;44.22;;;16.63;;
32874;SDS011;40468;42.128;24.750;2024-02-28T06:17:46;40.65;;;16.35;;
32874;SDS011;40468;42.128;24.750;2024-02-28T06:19:17;40.00;;;17.10;;
32874;SDS011;40468;42.128;24.750;2024-02-28T06:20:48;40.63;;;16.58;;
32874;SDS011;40468;42.128;24.750;2024-02-28T06:22:19;46.83;;;17.92;;
32874;SDS011;40468;42.128;24.750;2024-02-28T06:23:51;42.10;;;18.52;;
32874;SDS011;40468;42.128;24.750;2024-02-28T06:25:22;42.13;;;19.17;;
32874;SDS011;40468;42.128;24.750;2024-02-28T06:26:55;41.42;;;19.60;;
32874;SDS011;40468;42.128;24.750;2024-02-28T06:28:27;45.22;;;19.50;;
32874;SDS011;40468;42.128;24.750;2024-02-28T06:29:59;44.90;;;18.70;;
32874;SDS011;40468;42.128;24.750;2024-02-28T06:31:30;52.03;;;20.30;;
32874;SDS011;40468;42.128;24.750;2024-02-28T06:33:02;53.88;;;19.35;;
32874;SDS011;40468;42.128;24.750;2024-02-28T06:34:34;46.65;;;18.83;;
32874;SDS011;40468;42.128;24.750;2024-02-28T06:36:06;38.03;;;17.75;;
32874;SDS011;40468;42.128;24.750;2024-02-28T06:37:37;40.75;;;17.55;;
32874;SDS011;40468;42.128;24.750;2024-02-28T06:39:09;43.88;;;17.60;;
32874;SDS011;40468;42.128;24.750;2024-02-28T06:40:40;40.67;;;17.70;;
32874;SDS011;40468;42.128;24.750;2024-02-28T06:42:12;41.88;;;17.95;;
32874;SDS011;40468;42.128;24.750;2024-02-28T06:43:44;47.05;;;17.35;;
32874;SDS011;40468;42.128;24.750;2024-02-28T06:45:16;35.70;;;16.38;;
32874;SDS011;40468;42.128;24.750;2024-02-28T06:46:47;40.50;;;17.05;;
32874;SDS011;40468;42.128;24.750;2024-02-28T06:48:19;36.05;;;16.58;;
32874;SDS011;40468;42.128;24.750;2024-02-28T06:49:50;42.65;;;16.17;;
32874;SDS011;40468;42.128;24.750;2024-02-28T06:51:22;44.53;;;16.77;;
32874;SDS011;40468;42.128;24.750;2024-02-28T06:52:53;39.35;;;16.40;;
32874;SDS011;40468;42.128;24.750;2024-02-28T06:54:24;41.15;;;17.80;;
32874;SDS011;40468;42.128;24.750;2024-02-28T06:55:55;38.88;;;17.08;;
32874;SDS011;40468;42.128;24.750;2024-02-28T06:57:27;39.08;;;17.30;;
32874;SDS011;40468;42.128;24.750;2024-02-28T06:58:59;41.95;;;16.33;;
32874;SDS011;40468;42.128;24.750;2024-02-28T07:00:31;46.20;;;17.13;;
32874;SDS011;40468;42.128;24.750;2024-02-28T07:02:02;42.03;;;15.13;;
32874;SDS011;40468;42.128;24.750;2024-02-28T07:03:35;33.13;;;12.83;;
32874;SDS011;40468;42.128;24.750;2024-02-28T07:05:05;32.55;;;12.88;;
32874;SDS011;40468;42.128;24.750;2024-02-28T07:06:38;38.67;;;13.00;;
32874;SDS011;40468;42.128;24.750;2024-02-28T07:08:09;116.60;;;46.78;;
32874;SDS011;40468;42.128;24.750;2024-02-28T07:09:44;244.50;;;111.97;;
32874;SDS011;40468;42.128;24.750;2024-02-28T07:11:23;41.65;;;18.65;;
32874;SDS011;40468;42.128;24.750;2024-02-28T07:12:55;36.75;;;14.13;;
32874;SDS011;40468;42.128;24.750;2024-02-28T07:14:27;35.53;;;13.10;;
32874;SDS011;40468;42.128;24.750;2024-02-28T07:15:59;40.88;;;13.20;;
32874;SDS011;40468;42.128;24.750;2024-02-28T07:17:30;36.08;;;13.50;;
32874;SDS011;40468;42.128;24.750;2024-02-28T07:19:03;27.70;;;11.55;;
32874;SDS011;40468;42.128;24.750;2024-02-28T07:20:33;29.35;;;11.68;;
32874;SDS011;40468;42.128;24.750;2024-02-28T07:22:05;31.42;;;11.18;;
32874;SDS011;40468;42.128;24.750;2024-02-28T07:23:38;30.13;;;10.98;;
32874;SDS011;40468;42.128;24.750;2024-02-28T07:25:10;30.27;;;11.13;;
32874;SDS011;40468;42.128;24.750;2024-02-28T07:26:41;27.80;;;10.30;;
32874;SDS011;40468;42.128;24.750;2024-02-28T07:28:13;26.83;;;9.55;;
32874;SDS011;40468;42.128;24.750;2024-02-28T07:29:45;34.80;;;10.05;;
32874;SDS011;40468;42.128;24.750;2024-02-28T07:31:17;24.35;;;9.40;;
32874;SDS011;40468;42.128;24.750;2024-02-28T07:32:48;31.23;;;10.63;;
32874;SDS011;40468;42.128;24.750;2024-02-28T07:34:20;21.80;;;9.10;;
32874;SDS011;40468;42.128;24.750;2024-02-28T07:35:51;30.80;;;10.52;;
32874;SDS011;40468;42.128;24.750;2024-02-28T07:37:24;33.93;;;11.80;;
32874;SDS011;40468;42.128;24.750;2024-02-28T07:38:54;40.40;;;12.00;;
32874;SDS011;40468;42.128;24.750;2024-02-28T07:40:27;25.55;;;10.02;;
32874;SDS011;40468;42.128;24.750;2024-02-28T07:41:58;30.10;;;10.65;;
32874;SDS011;40468;42.128;24.750;2024-02-28T07:43:29;26.35;;;10.30;;
32874;SDS011;40468;42.128;24.750;2024-02-28T07:45:08;32.70;;;10.75;;
32874;SDS011;40468;42.128;24.750;2024-02-28T07:46:40;24.15;;;10.40;;
32874;SDS011;40468;42.128;24.750;2024-02-28T07:49:43;24.38;;;9.32;;
32874;SDS011;40468;42.128;24.750;2024-02-28T07:51:14;33.67;;;10.75;;
32874;SDS011;40468;42.128;24.750;2024-02-28T07:52:45;26.02;;;10.25;;
32874;SDS011;40468;42.128;24.750;2024-02-28T07:54:17;34.78;;;9.73;;
32874;SDS011;40468;42.128;24.750;2024-02-28T07:55:48;33.67;;;10.98;;
32874;SDS011;40468;42.128;24.750;2024-02-28T07:57:20;31.65;;;12.60;;
32874;SDS011;40468;42.128;24.750;2024-02-28T07:58:51;37.42;;;14.40;;
32874;SDS011;40468;42.128;24.750;2024-02-28T08:00:24;27.65;;;11.93;;
32874;SDS011;40468;42.128;24.750;2024-02-28T08:01:55;30.25;;;10.68;;
32874;SDS011;40468;42.128;24.750;2024-02-28T08:03:27;37.70;;;10.88;;
32874;SDS011;40468;42.128;24.750;2024-02-28T08:04:59;34.05;;;10.65;;
32874;SDS011;40468;42.128;24.750;2024-02-28T08:06:30;26.90;;;10.90;;
32874;SDS011;40468;42.128;24.750;2024-02-28T08:08:03;35.35;;;11.63;;
32874;SDS011;40468;42.128;24.750;2024-02-28T08:09:35;29.33;;;12.33;;
32874;SDS011;40468;42.128;24.750;2024-02-28T08:11:06;35.65;;;11.30;;
32874;SDS011;40468;42.128;24.750;2024-02-28T08:12:38;34.10;;;12.30;;
32874;SDS011;40468;42.128;24.750;2024-02-28T08:14:09;30.98;;;11.32;;
32874;SDS011;40468;42.128;24.750;2024-02-28T08:15:42;39.97;;;11.90;;
32874;SDS011;40468;42.128;24.750;2024-02-28T08:17:14;31.67;;;10.75;;
32874;SDS011;40468;42.128;24.750;2024-02-28T08:18:45;25.90;;;11.23;;
32874;SDS011;40468;42.128;24.750;2024-02-28T08:20:17;36.75;;;11.57;;
32874;SDS011;40468;42.128;24.750;2024-02-28T08:21:48;31.45;;;12.38;;
32874;SDS011;40468;42.128;24.750;2024-02-28T08:23:19;28.20;;;12.00;;
32874;SDS011;40468;42.128;24.750;2024-02-28T08:24:50;33.78;;;11.50;;
32874;SDS011;40468;42.128;24.750;2024-02-28T08:26:23;30.73;;;11.85;;
32874;SDS011;40468;42.128;24.750;2024-02-28T08:27:54;28.58;;;11.65;;
32874;SDS011;40468;42.128;24.750;2024-02-28T08:29:26;35.00;;;12.38;;
32874;SDS011;40468;42.128;24.750;2024-02-28T08:30:59;30.50;;;11.32;;
32874;SDS011;40468;42.128;24.750;2024-02-28T08:34:01;24.95;;;11.90;;
32874;SDS011;40468;42.128;24.750;2024-02-28T08:35:34;32.72;;;12.77;;
32874;SDS011;40468;42.128;24.750;2024-02-28T08:37:05;32.25;;;12.82;;
32874;SDS011;40468;42.128;24.750;2024-02-28T08:38:37;43.85;;;13.52;;
32874;SDS011;40468;42.128;24.750;2024-02-28T08:40:09;33.92;;;12.60;;
32874;SDS011;40468;42.128;24.750;2024-02-28T08:41:41;41.25;;;14.35;;
32874;SDS011;40468;42.128;24.750;2024-02-28T08:43:12;33.42;;;14.07;;
32874;SDS011;40468;42.128;24.750;2024-02-28T08:44:44;30.20;;;12.52;;
32874;SDS011;40468;42.128;24.750;2024-02-28T08:46:19;32.22;;;12.15;;
32874;SDS011;40468;42.128;24.750;2024-02-28T08:47:51;43.90;;;13.63;;
32874;SDS011;40468;42.128;24.750;2024-02-28T08:49:23;31.88;;;13.43;;
32874;SDS011;40468;42.128;24.750;2024-02-28T08:50:55;36.42;;;14.98;;
32874;SDS011;40468;42.128;24.750;2024-02-28T08:52:25;32.13;;;14.65;;
32874;SDS011;40468;42.128;24.750;2024-02-28T08:53:57;33.78;;;13.65;;
32874;SDS011;40468;42.128;24.750;2024-02-28T08:55:29;34.83;;;13.25;;
32874;SDS011;40468;42.128;24.750;2024-02-28T08:57:01;32.88;;;15.02;;
32874;SDS011;40468;42.128;24.750;2024-02-28T08:58:33;36.08;;;13.77;;